Create Custom Reports and Graphics: Custom Report

Modesto Jr College

Current Conditions

1/21/20 11:45 AM (-08:00)
Updated Every 15 Minutes
Temp 58.2 °F   12.6
RH 63 %   26
Dew Pt 45.6 °F   3.2
Wind Spd 8.7 mph
Wind Dir SSE | 147 °
Wind Gust 14.9 mph   11.0
Latest Rain 0.00 In
Daily Rain 0.00 In
Daily Min Temp 41.5 °F   0.3
Daily Max Temp 59.1 °F   13.1

Last 24 Hours

Modesto Jr College

15 Minute Data | America/Los_Angeles
as of 1/21/20 11:47 AM PST
Date & Time Temp (°F) RH (%) Dew Pt (°F) Wind Spd (mph) Wind Dir (°) Wind Gust (mph) Latest Rain (In) Daily Rain (In) Daily Min Temp (°F) Daily Max Temp (°F)
1/21/20 - 1145 58.2 63 45.6 8.7 SSE | 147 14.9 0.00 0.00 41.5 59.1
1/21/20 - 1130 57.8 63 45.2 8.2 SSE | 149 13.8 0.00 0.00 41.5 58.7
1/21/20 - 1115 58.1 63 45.6 7.8 SE | 143 13.6 0.00 0.00 41.5 58.7
1/21/20 - 1100 57.4 66 46.0 6.7 SE | 138 12.3 0.00 0.00 41.5 58.3
1/21/20 - 1045 56.2 68 45.8 6.9 SE | 132 12.3 0.00 0.00 41.5 57.0
1/21/20 - 1030 55.4 70 46.0 7.3 SE | 140 11.4 0.00 0.00 41.5 56.1
1/21/20 - 1015 53.9 74 45.7 6.6 SE | 132 11.2 0.00 0.00 41.5 55.0
1/21/20 - 1000 52.6 76 45.3 6.0 SE | 145 12.3 0.00 0.00 41.5 53.2
1/21/20 - 0945 51.4 79 45.1 5.2 SE | 139 11.0 0.00 0.00 41.5 52.3
1/21/20 - 0930 49.4 83 44.4 5.6 SE | 134 9.2 0.00 0.00 41.5 50.3
1/21/20 - 0915 47.6 86 43.6 3.3 SE | 134 6.4 0.00 0.00 41.5 48.2
1/21/20 - 0900 47.6 86 43.6 3.9 ESE | 111 7.0 0.00 0.00 41.5 48.2
1/21/20 - 0845 46.9 88 43.6 2.1 SSE | 166 3.9 0.00 0.00 41.5 47.9
1/21/20 - 0830 45.8 91 43.4 2.6 SSW | 198 6.4 0.00 0.00 41.5 47.4
1/21/20 - 0815 44.9 92 42.7 5.5 E | 98 9.0 0.00 0.00 41.5 45.4
1/21/20 - 0800 44.8 93 43.0 3.4 ESE | 110 6.8 0.00 0.00 41.5 45.4
1/21/20 - 0745 44.5 94 43.0 4.7 E | 98 7.2 0.00 0.00 41.5 45.4
1/21/20 - 0730 44.3 95 43.1 3.1 E | 85 4.8 0.00 0.00 41.5 45.4
1/21/20 - 0715 43.8 96 42.8 3.7 E | 89 5.5 0.00 0.00 41.5 45.4
1/21/20 - 0700 42.5 96 41.4 1.4 ENE | 77 3.9 0.00 0.00 41.5 45.4
1/21/20 - 0645 42.1 96 41.0 0.3 ENE | 63 1.3 0.00 0.00 41.5 45.4
1/21/20 - 0630 42.0 95 40.8 1.6 NW | 315 2.6 0.00 0.00 41.5 45.4
1/21/20 - 0615 42.7 95 41.3 0.6 WNW | 292 3.1 0.00 0.00 41.5 45.4
1/21/20 - 0600 43.2 96 42.0 0.9 SE | 135 2.6 0.00 0.00 41.5 45.4
1/21/20 - 0545 42.0 95 40.7 1.8 E | 86 3.3 0.00 0.00 41.5 45.4
1/21/20 - 0530 42.3 94 40.7 0.6 WSW | 252 1.8 0.00 0.00 41.8 45.4
1/21/20 - 0515 42.9 94 41.2 0.4 E | 89 1.5 0.00 0.00 41.8 45.4
1/21/20 - 0500 43.9 93 42.0 1.3 W | 268 2.6 0.00 0.00 41.8 45.4
1/21/20 - 0445 44.6 93 42.8 0.6 SSE | 149 2.0 0.00 0.00 41.8 45.4
1/21/20 - 0430 44.8 93 42.9 1.9 SE | 144 3.7 0.00 0.00 41.8 45.4
1/21/20 - 0415 45.2 93 43.3 2.8 SE | 137 5.9 0.00 0.00 41.8 45.4
1/21/20 - 0400 45.0 94 43.4 4.2 ESE | 121 6.8 0.00 0.00 41.8 45.4
1/21/20 - 0345 44.2 94 42.8 3.2 SE | 136 5.5 0.00 0.00 41.8 45.4
1/21/20 - 0330 43.3 94 41.8 2.1 ESE | 110 3.7 0.00 0.00 41.8 45.4
1/21/20 - 0315 43.7 93 41.8 0.8 ESE | 103 2.2 0.00 0.00 41.8 45.4
1/21/20 - 0300 44.1 93 42.3 1.8 ESE | 110 3.5 0.00 0.00 41.8 45.4
1/21/20 - 0245 44.4 93 42.4 2.2 E | 94 3.7 0.00 0.00 41.8 45.4
1/21/20 - 0230 44.5 93 42.6 3.1 ESE | 102 4.8 0.00 0.00 41.8 45.4
1/21/20 - 0215 44.6 93 42.6 3.9 E | 95 5.7 0.00 0.00 41.8 45.4
1/21/20 - 0200 45.0 92 42.9 4.0 E | 88 7.0 0.00 0.00 41.8 45.4
1/21/20 - 0145 45.1 93 43.3 4.3 ENE | 75 7.0 0.00 0.00 41.8 45.4
1/21/20 - 0130 44.9 94 43.3 4.0 ENE | 71 6.6 0.00 0.00 41.8 45.2
1/21/20 - 0115 44.5 94 43.0 3.1 ENE | 58 5.7 0.00 0.00 41.8 44.9
1/21/20 - 0100 44.5 95 43.1 2.6 ENE | 63 5.3 0.00 0.00 41.8 44.8
1/21/20 - 0045 44.4 95 43.1 2.8 ENE | 70 4.6 0.00 0.00 41.8 44.8
1/21/20 - 0030 43.9 96 42.8 4.3 ENE | 71 7.0 0.00 0.00 41.8 44.8
1/21/20 - 0015 42.3 95 41.0 1.3 E | 84 3.5 0.00 0.00 41.8 43.0
1/21/20 - 0000 42.3 94 40.8 0.6 W | 262 2.0 0.00 0.00 41.2 49.2
1/20/20 - 2345 42.4 94 40.9 1.3 WSW | 245 2.2 0.00 0.00 41.2 49.2
1/20/20 - 2330 42.6 94 40.9 0.4 NNW | 337 1.5 0.00 0.00 41.2 49.2
1/20/20 - 2315 44.0 93 42.0 0.9 NNE | 25 1.3 0.00 0.00 41.2 49.2
1/20/20 - 2300 44.9 92 42.7 0.3 WSW | 238 2.6 0.00 0.00 41.2 49.2
1/20/20 - 2245 45.4 92 43.3 2.5 SW | 228 5.0 0.00 0.00 41.2 49.2
1/20/20 - 2230 45.4 92 43.2 2.4 WSW | 247 5.0 0.00 0.00 41.2 49.2
1/20/20 - 2215 45.6 91 43.1 1.9 WSW | 257 3.5 0.00 0.00 41.2 49.2
1/20/20 - 2200 45.9 90 43.2 2.2 SW | 236 3.3 0.00 0.00 41.2 49.2
1/20/20 - 2145 45.8 90 43.1 1.3 SSW | 204 2.6 0.00 0.00 41.2 49.2
1/20/20 - 2130 46.0 89 43.1 0.1 SW | 226 1.5 0.00 0.00 41.2 49.2
1/20/20 - 2115 46.3 89 43.3 3.0 WSW | 253 4.8 0.00 0.00 41.2 49.2
1/20/20 - 2100 46.6 88 43.3 3.5 SW | 229 6.6 0.00 0.00 41.2 49.2
1/20/20 - 2045 47.0 87 43.4 3.2 SW | 219 5.3 0.00 0.00 41.2 49.2
1/20/20 - 2030 47.1 87 43.5 3.8 S | 191 7.2 0.00 0.00 41.2 49.2
1/20/20 - 2015 46.9 88 43.4 2.6 NE | 48 5.5 0.00 0.00 41.2 49.2
1/20/20 - 2000 46.8 87 43.1 4.6 NE | 35 7.2 0.00 0.00 41.2 49.2
1/20/20 - 1945 47.2 85 43.1 5.0 ENE | 70 7.9 0.00 0.00 41.2 49.2
1/20/20 - 1930 47.4 85 43.1 5.6 E | 81 8.8 0.00 0.00 41.2 49.2
1/20/20 - 1915 47.3 85 43.1 4.4 E | 80 7.9 0.00 0.00 41.2 49.2
1/20/20 - 1900 47.2 85 43.1 3.7 E | 82 7.2 0.00 0.00 41.2 49.2
1/20/20 - 1845 47.3 85 42.9 3.3 E | 100 6.4 0.00 0.00 41.2 49.2
1/20/20 - 1830 47.1 85 42.8 2.6 ESE | 104 5.3 0.00 0.00 41.2 49.2
1/20/20 - 1815 46.9 85 42.7 1.7 E | 90 4.6 0.00 0.00 41.2 49.2
1/20/20 - 1800 47.3 84 42.6 1.7 WSW | 243 5.0 0.00 0.00 41.2 49.2
1/20/20 - 1745 47.3 84 42.9 4.0 SE | 126 6.1 0.00 0.00 41.2 49.2
1/20/20 - 1730 47.2 85 42.8 2.6 ESE | 121 5.3 0.00 0.00 41.2 49.2
1/20/20 - 1715 47.5 84 42.8 2.5 SSE | 163 4.4 0.00 0.00 41.2 49.2
1/20/20 - 1700 47.7 83 42.8 2.6 SSE | 163 5.5 0.00 0.00 41.2 49.2
1/20/20 - 1645 48.0 82 42.6 2.6 S | 179 4.6 0.00 0.00 41.2 49.2
1/20/20 - 1630 48.3 81 42.6 2.7 SSE | 147 5.3 0.00 0.00 41.2 49.2
1/20/20 - 1615 48.6 79 42.4 3.7 ESE | 111 6.4 0.00 0.00 41.2 49.2
1/20/20 - 1600 48.8 78 42.3 3.5 E | 100 6.4 0.00 0.00 41.2 49.2
1/20/20 - 1545 48.9 77 42.2 1.7 SE | 142 4.2 0.00 0.00 41.2 49.2
1/20/20 - 1530 48.8 77 42.0 1.7 ESE | 119 4.4 0.00 0.00 41.2 49.2
1/20/20 - 1515 48.8 77 42.0 2.2 E | 97 4.8 0.00 0.00 41.2 49.2
1/20/20 - 1500 48.6 79 42.4 1.3 ESE | 118 3.9 0.00 0.00 41.2 49.2
1/20/20 - 1445 48.4 80 42.4 1.9 SE | 137 3.7 0.00 0.00 41.2 49.2
1/20/20 - 1430 48.8 79 42.6 1.4 W | 272 3.5 0.00 0.00 41.2 49.2
1/20/20 - 1415 48.7 78 42.2 2.1 W | 268 3.5 0.00 0.00 41.2 49.0
1/20/20 - 1400 48.4 79 42.2 2.4 WSW | 244 4.2 0.00 0.00 41.2 48.8
1/20/20 - 1345 48.1 79 42.1 2.3 SSE | 164 4.6 0.00 0.00 41.2 48.4
1/20/20 - 1330 48.0 79 41.9 3.4 SSE | 153 5.9 0.00 0.00 41.2 48.4
1/20/20 - 1315 48.1 80 42.3 1.6 SE | 144 3.9 0.00 0.00 41.2 48.4
1/20/20 - 1300 47.6 82 42.4 0.8 W | 277 3.3 0.00 0.00 41.2 48.3
1/20/20 - 1245 47.0 83 42.2 1.1 NE | 48 3.7 0.00 0.00 41.2 47.3
1/20/20 - 1230 46.6 84 42.2 1.0 SSW | 192 3.5 0.00 0.00 41.2 47.1
1/20/20 - 1215 46.4 85 42.2 2.3 SSE | 155 4.4 0.00 0.00 41.2 46.6
1/20/20 - 1200 46.1 86 42.2 2.2 SSE | 160 4.8 0.00 0.00 41.2 46.5
1/20/20 - 1145 45.6 88 42.3 1.8 ESE | 104 3.9 0.00 0.00 41.2 46.0
Max 58.2 96 46.0 8.7 - 14.9 0.00 0.00 41.8 59.1
Avg 46.7 87 42.8 2.9 - 5.5 0.00 - - -
Min 42.0 63 40.7 0.1 - 1.3 0.00 0.00 41.2 43.0
Total - - - - - - 0.00 - - -

Last 7 Days

Modesto Jr College

Daily Data | America/Los_Angeles
as of 1/21/20 11:47 AM PST
Date Daily ETo (in)
1/20/20 0.019
1/19/20 0.017
1/18/20 0.015
1/17/20 0.037
1/16/20 0.025
1/15/20 0.038
1/14/20 0.059
Max 0.059
Min 0.015